sensor_id;sensor_type;location;lat;lon;timestamp;P1;durP1;ratioP1;P2;durP2;ratioP2
43160;SDS011;40968;52.342;5.528;2023-07-24T00:00:32;12.45;;;4.50;;
43160;SDS011;40968;52.342;5.528;2023-07-24T00:03:00;10.13;;;4.35;;
43160;SDS011;40968;52.342;5.528;2023-07-24T00:05:27;13.02;;;4.35;;
43160;SDS011;40968;52.342;5.528;2023-07-24T00:07:55;13.23;;;5.03;;
43160;SDS011;40968;52.342;5.528;2023-07-24T00:10:21;11.82;;;4.40;;
43160;SDS011;40968;52.342;5.528;2023-07-24T00:12:48;10.98;;;4.40;;
43160;SDS011;40968;52.342;5.528;2023-07-24T00:15:15;12.23;;;5.15;;
43160;SDS011;40968;52.342;5.528;2023-07-24T00:17:42;12.30;;;5.03;;
43160;SDS011;40968;52.342;5.528;2023-07-24T00:20:09;11.05;;;4.38;;
43160;SDS011;40968;52.342;5.528;2023-07-24T00:22:36;12.20;;;4.53;;
43160;SDS011;40968;52.342;5.528;2023-07-24T00:25:04;12.43;;;4.72;;
43160;SDS011;40968;52.342;5.528;2023-07-24T00:27:31;11.07;;;4.80;;
43160;SDS011;40968;52.342;5.528;2023-07-24T00:29:58;12.73;;;4.80;;
43160;SDS011;40968;52.342;5.528;2023-07-24T00:32:25;10.73;;;4.53;;
43160;SDS011;40968;52.342;5.528;2023-07-24T00:34:51;11.98;;;5.25;;
43160;SDS011;40968;52.342;5.528;2023-07-24T00:37:18;12.52;;;4.80;;
43160;SDS011;40968;52.342;5.528;2023-07-24T00:39:45;13.05;;;5.03;;
43160;SDS011;40968;52.342;5.528;2023-07-24T00:42:12;11.60;;;4.40;;
43160;SDS011;40968;52.342;5.528;2023-07-24T00:44:39;13.18;;;5.10;;
43160;SDS011;40968;52.342;5.528;2023-07-24T00:47:06;11.80;;;4.45;;
43160;SDS011;40968;52.342;5.528;2023-07-24T00:49:32;9.32;;;4.60;;
43160;SDS011;40968;52.342;5.528;2023-07-24T00:52:00;11.73;;;4.25;;
43160;SDS011;40968;52.342;5.528;2023-07-24T00:54:27;15.82;;;4.50;;
43160;SDS011;40968;52.342;5.528;2023-07-24T00:56:56;11.70;;;5.10;;
43160;SDS011;40968;52.342;5.528;2023-07-24T00:59:24;9.73;;;4.63;;
43160;SDS011;40968;52.342;5.528;2023-07-24T01:01:51;11.32;;;4.82;;
43160;SDS011;40968;52.342;5.528;2023-07-24T01:04:18;10.10;;;4.10;;
43160;SDS011;40968;52.342;5.528;2023-07-24T01:06:45;15.02;;;4.72;;
43160;SDS011;40968;52.342;5.528;2023-07-24T01:09:12;12.43;;;4.55;;
43160;SDS011;40968;52.342;5.528;2023-07-24T01:11:40;9.43;;;4.07;;
43160;SDS011;40968;52.342;5.528;2023-07-24T01:14:12;11.60;;;4.40;;
43160;SDS011;40968;52.342;5.528;2023-07-24T01:16:45;13.90;;;4.32;;
43160;SDS011;40968;52.342;5.528;2023-07-24T01:19:16;11.63;;;4.30;;
43160;SDS011;40968;52.342;5.528;2023-07-24T01:21:52;7.80;;;3.72;;
43160;SDS011;40968;52.342;5.528;2023-07-24T01:24:29;12.15;;;4.07;;
43160;SDS011;40968;52.342;5.528;2023-07-24T01:27:00;10.07;;;4.05;;
43160;SDS011;40968;52.342;5.528;2023-07-24T01:29:27;11.05;;;4.45;;
43160;SDS011;40968;52.342;5.528;2023-07-24T01:31:54;9.52;;;4.38;;
43160;SDS011;40968;52.342;5.528;2023-07-24T01:34:21;10.45;;;4.40;;
43160;SDS011;40968;52.342;5.528;2023-07-24T01:36:47;10.18;;;4.50;;
43160;SDS011;40968;52.342;5.528;2023-07-24T01:39:16;14.73;;;4.80;;
43160;SDS011;40968;52.342;5.528;2023-07-24T01:41:46;10.77;;;4.30;;
43160;SDS011;40968;52.342;5.528;2023-07-24T01:44:14;15.15;;;4.72;;
43160;SDS011;40968;52.342;5.528;2023-07-24T01:46:41;10.93;;;4.18;;
43160;SDS011;40968;52.342;5.528;2023-07-24T01:49:08;11.50;;;4.10;;
43160;SDS011;40968;52.342;5.528;2023-07-24T01:51:34;9.50;;;3.60;;
43160;SDS011;40968;52.342;5.528;2023-07-24T01:54:01;17.50;;;4.88;;
43160;SDS011;40968;52.342;5.528;2023-07-24T01:56:28;12.77;;;4.03;;
43160;SDS011;40968;52.342;5.528;2023-07-24T01:58:55;10.73;;;4.20;;
43160;SDS011;40968;52.342;5.528;2023-07-24T02:01:23;13.88;;;4.78;;
43160;SDS011;40968;52.342;5.528;2023-07-24T02:03:49;11.82;;;4.95;;
43160;SDS011;40968;52.342;5.528;2023-07-24T02:06:16;12.55;;;4.80;;
43160;SDS011;40968;52.342;5.528;2023-07-24T02:08:43;9.48;;;4.15;;
43160;SDS011;40968;52.342;5.528;2023-07-24T02:11:13;13.68;;;4.75;;
43160;SDS011;40968;52.342;5.528;2023-07-24T02:13:40;7.97;;;4.25;;
43160;SDS011;40968;52.342;5.528;2023-07-24T02:16:10;10.30;;;4.85;;
43160;SDS011;40968;52.342;5.528;2023-07-24T02:18:38;13.23;;;4.30;;
43160;SDS011;40968;52.342;5.528;2023-07-24T02:21:05;10.95;;;5.25;;
43160;SDS011;40968;52.342;5.528;2023-07-24T02:23:32;10.88;;;5.00;;
43160;SDS011;40968;52.342;5.528;2023-07-24T02:25:58;11.73;;;4.47;;
43160;SDS011;40968;52.342;5.528;2023-07-24T02:28:25;13.68;;;5.13;;
43160;SDS011;40968;52.342;5.528;2023-07-24T02:30:52;13.73;;;4.97;;
43160;SDS011;40968;52.342;5.528;2023-07-24T02:33:21;10.10;;;4.75;;
43160;SDS011;40968;52.342;5.528;2023-07-24T02:35:49;10.52;;;4.45;;
43160;SDS011;40968;52.342;5.528;2023-07-24T02:38:18;17.85;;;5.10;;
43160;SDS011;40968;52.342;5.528;2023-07-24T02:40:45;9.90;;;4.88;;
43160;SDS011;40968;52.342;5.528;2023-07-24T02:43:11;13.13;;;4.65;;
43160;SDS011;40968;52.342;5.528;2023-07-24T02:45:38;10.88;;;4.57;;
43160;SDS011;40968;52.342;5.528;2023-07-24T02:48:05;12.43;;;5.22;;
43160;SDS011;40968;52.342;5.528;2023-07-24T02:50:32;13.75;;;4.40;;
43160;SDS011;40968;52.342;5.528;2023-07-24T02:53:00;12.85;;;4.70;;
43160;SDS011;40968;52.342;5.528;2023-07-24T02:55:27;13.02;;;4.78;;
43160;SDS011;40968;52.342;5.528;2023-07-24T02:57:54;9.75;;;4.55;;
43160;SDS011;40968;52.342;5.528;2023-07-24T03:00:21;16.30;;;5.22;;
43160;SDS011;40968;52.342;5.528;2023-07-24T03:02:47;11.80;;;4.70;;
43160;SDS011;40968;52.342;5.528;2023-07-24T03:05:14;10.18;;;3.88;;
43160;SDS011;40968;52.342;5.528;2023-07-24T03:07:41;13.45;;;4.63;;
43160;SDS011;40968;52.342;5.528;2023-07-24T03:10:09;10.80;;;4.53;;
43160;SDS011;40968;52.342;5.528;2023-07-24T03:12:36;9.15;;;4.18;;
43160;SDS011;40968;52.342;5.528;2023-07-24T03:15:03;13.25;;;4.43;;
43160;SDS011;40968;52.342;5.528;2023-07-24T03:17:30;10.10;;;4.07;;
43160;SDS011;40968;52.342;5.528;2023-07-24T03:19:57;8.73;;;4.05;;
43160;SDS011;40968;52.342;5.528;2023-07-24T03:22:24;8.60;;;3.83;;
43160;SDS011;40968;52.342;5.528;2023-07-24T03:24:50;10.38;;;4.45;;
43160;SDS011;40968;52.342;5.528;2023-07-24T03:27:18;10.50;;;4.10;;
43160;SDS011;40968;52.342;5.528;2023-07-24T03:29:45;11.98;;;4.88;;
43160;SDS011;40968;52.342;5.528;2023-07-24T03:32:12;12.20;;;4.60;;
43160;SDS011;40968;52.342;5.528;2023-07-24T03:34:39;10.75;;;4.25;;
43160;SDS011;40968;52.342;5.528;2023-07-24T03:37:06;12.45;;;4.40;;
43160;SDS011;40968;52.342;5.528;2023-07-24T03:39:32;11.85;;;4.43;;
43160;SDS011;40968;52.342;5.528;2023-07-24T03:41:59;9.02;;;3.90;;
43160;SDS011;40968;52.342;5.528;2023-07-24T03:44:27;11.57;;;4.32;;
43160;SDS011;40968;52.342;5.528;2023-07-24T03:46:53;9.68;;;4.30;;
43160;SDS011;40968;52.342;5.528;2023-07-24T03:49:20;11.55;;;3.95;;
43160;SDS011;40968;52.342;5.528;2023-07-24T03:51:47;11.80;;;4.32;;
43160;SDS011;40968;52.342;5.528;2023-07-24T03:54:14;15.60;;;4.38;;
43160;SDS011;40968;52.342;5.528;2023-07-24T03:56:41;10.48;;;4.30;;
43160;SDS011;40968;52.342;5.528;2023-07-24T03:59:07;8.73;;;3.60;;
43160;SDS011;40968;52.342;5.528;2023-07-24T04:01:35;12.65;;;4.63;;
43160;SDS011;40968;52.342;5.528;2023-07-24T04:04:02;7.28;;;3.70;;
43160;SDS011;40968;52.342;5.528;2023-07-24T04:06:29;10.15;;;3.95;;
43160;SDS011;40968;52.342;5.528;2023-07-24T04:08:56;9.55;;;4.03;;
43160;SDS011;40968;52.342;5.528;2023-07-24T04:11:22;11.52;;;4.45;;
43160;SDS011;40968;52.342;5.528;2023-07-24T04:13:49;8.10;;;3.92;;
43160;SDS011;40968;52.342;5.528;2023-07-24T04:16:16;15.70;;;4.47;;
43160;SDS011;40968;52.342;5.528;2023-07-24T04:18:44;12.30;;;4.32;;
43160;SDS011;40968;52.342;5.528;2023-07-24T04:21:10;10.63;;;3.70;;
43160;SDS011;40968;52.342;5.528;2023-07-24T04:23:37;8.65;;;3.95;;
43160;SDS011;40968;52.342;5.528;2023-07-24T04:26:04;12.77;;;4.72;;
43160;SDS011;40968;52.342;5.528;2023-07-24T04:28:30;9.40;;;4.10;;
43160;SDS011;40968;52.342;5.528;2023-07-24T04:30:59;11.43;;;4.63;;
43160;SDS011;40968;52.342;5.528;2023-07-24T04:33:26;10.55;;;4.32;;
43160;SDS011;40968;52.342;5.528;2023-07-24T04:35:55;9.43;;;3.78;;
43160;SDS011;40968;52.342;5.528;2023-07-24T04:38:22;10.07;;;4.60;;
43160;SDS011;40968;52.342;5.528;2023-07-24T04:40:48;9.40;;;4.15;;
43160;SDS011;40968;52.342;5.528;2023-07-24T04:43:15;9.75;;;4.72;;
43160;SDS011;40968;52.342;5.528;2023-07-24T04:45:42;10.20;;;4.20;;
43160;SDS011;40968;52.342;5.528;2023-07-24T04:48:08;13.82;;;4.80;;
43160;SDS011;40968;52.342;5.528;2023-07-24T04:50:35;12.57;;;5.05;;
43160;SDS011;40968;52.342;5.528;2023-07-24T04:53:03;9.23;;;4.60;;
43160;SDS011;40968;52.342;5.528;2023-07-24T04:55:30;19.25;;;5.63;;
43160;SDS011;40968;52.342;5.528;2023-07-24T04:57:56;16.30;;;5.45;;
43160;SDS011;40968;52.342;5.528;2023-07-24T05:00:23;12.32;;;4.57;;
43160;SDS011;40968;52.342;5.528;2023-07-24T05:02:51;15.85;;;5.68;;
43160;SDS011;40968;52.342;5.528;2023-07-24T05:05:18;15.45;;;5.95;;
43160;SDS011;40968;52.342;5.528;2023-07-24T05:07:44;15.70;;;6.15;;
43160;SDS011;40968;52.342;5.528;2023-07-24T05:10:13;16.15;;;5.93;;
43160;SDS011;40968;52.342;5.528;2023-07-24T05:12:40;14.45;;;5.72;;
43160;SDS011;40968;52.342;5.528;2023-07-24T05:15:07;16.20;;;6.45;;
43160;SDS011;40968;52.342;5.528;2023-07-24T05:17:34;20.45;;;7.00;;
43160;SDS011;40968;52.342;5.528;2023-07-24T05:20:01;18.13;;;6.25;;
43160;SDS011;40968;52.342;5.528;2023-07-24T05:22:28;19.40;;;7.40;;
43160;SDS011;40968;52.342;5.528;2023-07-24T05:24:54;18.55;;;6.50;;
43160;SDS011;40968;52.342;5.528;2023-07-24T05:27:22;20.95;;;7.22;;
43160;SDS011;40968;52.342;5.528;2023-07-24T05:29:49;23.73;;;6.90;;
43160;SDS011;40968;52.342;5.528;2023-07-24T05:32:16;20.05;;;7.40;;
43160;SDS011;40968;52.342;5.528;2023-07-24T05:34:42;15.27;;;6.20;;
43160;SDS011;40968;52.342;5.528;2023-07-24T05:37:09;18.58;;;6.50;;
43160;SDS011;40968;52.342;5.528;2023-07-24T05:39:36;22.08;;;6.65;;
43160;SDS011;40968;52.342;5.528;2023-07-24T05:42:03;16.25;;;5.80;;
43160;SDS011;40968;52.342;5.528;2023-07-24T05:44:31;17.38;;;5.60;;
43160;SDS011;40968;52.342;5.528;2023-07-24T05:47:00;18.15;;;6.03;;
43160;SDS011;40968;52.342;5.528;2023-07-24T05:49:27;16.70;;;5.57;;
43160;SDS011;40968;52.342;5.528;2023-07-24T05:51:54;18.08;;;5.90;;
43160;SDS011;40968;52.342;5.528;2023-07-24T05:54:22;17.13;;;5.60;;
43160;SDS011;40968;52.342;5.528;2023-07-24T05:56:48;15.30;;;6.43;;
43160;SDS011;40968;52.342;5.528;2023-07-24T05:59:15;18.60;;;6.03;;
43160;SDS011;40968;52.342;5.528;2023-07-24T06:01:43;17.95;;;6.32;;
43160;SDS011;40968;52.342;5.528;2023-07-24T06:04:10;16.10;;;5.45;;
43160;SDS011;40968;52.342;5.528;2023-07-24T06:06:36;17.50;;;6.15;;
43160;SDS011;40968;52.342;5.528;2023-07-24T06:09:03;25.00;;;6.53;;
43160;SDS011;40968;52.342;5.528;2023-07-24T06:11:30;24.70;;;6.47;;
43160;SDS011;40968;52.342;5.528;2023-07-24T06:13:56;19.98;;;6.40;;
43160;SDS011;40968;52.342;5.528;2023-07-24T06:16:23;18.88;;;5.90;;
43160;SDS011;40968;52.342;5.528;2023-07-24T06:18:51;22.30;;;5.80;;
43160;SDS011;40968;52.342;5.528;2023-07-24T06:21:17;22.98;;;6.30;;
43160;SDS011;40968;52.342;5.528;2023-07-24T06:23:44;21.63;;;6.55;;
43160;SDS011;40968;52.342;5.528;2023-07-24T06:26:11;20.25;;;6.68;;
43160;SDS011;40968;52.342;5.528;2023-07-24T06:28:37;20.15;;;5.97;;
43160;SDS011;40968;52.342;5.528;2023-07-24T06:31:04;19.13;;;5.93;;
43160;SDS011;40968;52.342;5.528;2023-07-24T06:33:31;17.08;;;5.88;;
43160;SDS011;40968;52.342;5.528;2023-07-24T06:35:59;20.48;;;6.28;;
43160;SDS011;40968;52.342;5.528;2023-07-24T06:38:25;22.83;;;6.88;;
43160;SDS011;40968;52.342;5.528;2023-07-24T06:40:52;21.23;;;6.03;;
43160;SDS011;40968;52.342;5.528;2023-07-24T06:43:18;19.77;;;6.05;;
43160;SDS011;40968;52.342;5.528;2023-07-24T06:45:45;18.95;;;6.47;;
43160;SDS011;40968;52.342;5.528;2023-07-24T06:48:12;22.38;;;7.03;;
43160;SDS011;40968;52.342;5.528;2023-07-24T06:50:38;17.20;;;6.00;;
43160;SDS011;40968;52.342;5.528;2023-07-24T06:53:06;29.90;;;6.55;;
43160;SDS011;40968;52.342;5.528;2023-07-24T06:55:33;21.17;;;7.25;;
43160;SDS011;40968;52.342;5.528;2023-07-24T06:58:00;23.92;;;7.47;;
43160;SDS011;40968;52.342;5.528;2023-07-24T07:00:26;18.63;;;7.30;;
43160;SDS011;40968;52.342;5.528;2023-07-24T07:02:53;15.55;;;6.07;;
43160;SDS011;40968;52.342;5.528;2023-07-24T07:05:20;23.77;;;6.32;;
43160;SDS011;40968;52.342;5.528;2023-07-24T07:07:46;19.65;;;7.35;;
43160;SDS011;40968;52.342;5.528;2023-07-24T07:10:14;21.23;;;6.85;;
43160;SDS011;40968;52.342;5.528;2023-07-24T07:12:41;22.85;;;6.97;;
43160;SDS011;40968;52.342;5.528;2023-07-24T07:15:08;16.20;;;5.57;;
43160;SDS011;40968;52.342;5.528;2023-07-24T07:17:35;19.33;;;5.90;;
43160;SDS011;40968;52.342;5.528;2023-07-24T07:20:02;14.35;;;5.68;;
43160;SDS011;40968;52.342;5.528;2023-07-24T07:22:29;19.92;;;5.32;;
43160;SDS011;40968;52.342;5.528;2023-07-24T07:24:55;18.63;;;5.93;;
43160;SDS011;40968;52.342;5.528;2023-07-24T07:27:24;18.73;;;6.28;;
43160;SDS011;40968;52.342;5.528;2023-07-24T07:29:50;16.80;;;5.22;;
43160;SDS011;40968;52.342;5.528;2023-07-24T07:32:17;15.85;;;6.03;;
43160;SDS011;40968;52.342;5.528;2023-07-24T07:34:44;17.23;;;6.28;;
43160;SDS011;40968;52.342;5.528;2023-07-24T07:37:10;19.52;;;5.72;;
43160;SDS011;40968;52.342;5.528;2023-07-24T07:39:37;20.35;;;5.85;;
43160;SDS011;40968;52.342;5.528;2023-07-24T07:42:04;19.83;;;5.25;;
43160;SDS011;40968;52.342;5.528;2023-07-24T07:44:32;11.00;;;4.60;;
43160;SDS011;40968;52.342;5.528;2023-07-24T07:46:59;14.20;;;4.45;;
43160;SDS011;40968;52.342;5.528;2023-07-24T07:49:26;12.63;;;4.88;;
43160;SDS011;40968;52.342;5.528;2023-07-24T07:51:52;13.73;;;4.75;;
43160;SDS011;40968;52.342;5.528;2023-07-24T07:54:19;15.73;;;4.75;;
43160;SDS011;40968;52.342;5.528;2023-07-24T07:56:46;17.10;;;4.82;;
43160;SDS011;40968;52.342;5.528;2023-07-24T07:59:12;15.73;;;5.20;;
43160;SDS011;40968;52.342;5.528;2023-07-24T08:01:40;18.58;;;5.93;;
43160;SDS011;40968;52.342;5.528;2023-07-24T08:04:07;22.70;;;5.03;;
43160;SDS011;40968;52.342;5.528;2023-07-24T08:06:34;12.68;;;4.38;;
43160;SDS011;40968;52.342;5.528;2023-07-24T08:09:00;15.85;;;4.03;;
43160;SDS011;40968;52.342;5.528;2023-07-24T08:11:27;14.60;;;5.05;;
43160;SDS011;40968;52.342;5.528;2023-07-24T08:13:54;16.45;;;4.80;;
43160;SDS011;40968;52.342;5.528;2023-07-24T08:16:20;12.80;;;5.13;;
43160;SDS011;40968;52.342;5.528;2023-07-24T08:18:48;19.02;;;5.45;;
43160;SDS011;40968;52.342;5.528;2023-07-24T08:21:16;18.75;;;4.63;;
43160;SDS011;40968;52.342;5.528;2023-07-24T08:23:43;11.77;;;5.15;;
43160;SDS011;40968;52.342;5.528;2023-07-24T08:26:09;15.35;;;5.32;;
43160;SDS011;40968;52.342;5.528;2023-07-24T08:28:36;14.75;;;5.47;;
43160;SDS011;40968;52.342;5.528;2023-07-24T08:31:07;18.45;;;5.78;;
43160;SDS011;40968;52.342;5.528;2023-07-24T08:33:34;18.27;;;5.57;;
43160;SDS011;40968;52.342;5.528;2023-07-24T08:36:02;14.48;;;4.90;;
43160;SDS011;40968;52.342;5.528;2023-07-24T08:38:30;15.60;;;5.25;;
43160;SDS011;40968;52.342;5.528;2023-07-24T08:41:01;16.48;;;5.45;;
43160;SDS011;40968;52.342;5.528;2023-07-24T08:43:28;18.08;;;5.00;;
43160;SDS011;40968;52.342;5.528;2023-07-24T08:45:56;14.07;;;5.55;;
43160;SDS011;40968;52.342;5.528;2023-07-24T08:48:24;11.18;;;4.65;;
43160;SDS011;40968;52.342;5.528;2023-07-24T08:50:52;16.00;;;5.63;;
43160;SDS011;40968;52.342;5.528;2023-07-24T08:53:20;15.25;;;5.40;;
43160;SDS011;40968;52.342;5.528;2023-07-24T08:55:47;14.82;;;5.45;;
43160;SDS011;40968;52.342;5.528;2023-07-24T08:58:15;14.07;;;5.35;;
43160;SDS011;40968;52.342;5.528;2023-07-24T09:00:41;17.55;;;5.82;;
43160;SDS011;40968;52.342;5.528;2023-07-24T09:03:08;18.08;;;5.28;;
43160;SDS011;40968;52.342;5.528;2023-07-24T09:05:35;10.75;;;4.72;;
43160;SDS011;40968;52.342;5.528;2023-07-24T09:08:01;16.65;;;5.78;;
43160;SDS011;40968;52.342;5.528;2023-07-24T09:10:30;14.20;;;5.47;;
43160;SDS011;40968;52.342;5.528;2023-07-24T09:12:56;12.45;;;4.80;;
43160;SDS011;40968;52.342;5.528;2023-07-24T09:15:23;12.25;;;5.07;;
43160;SDS011;40968;52.342;5.528;2023-07-24T09:17:50;11.55;;;4.50;;
43160;SDS011;40968;52.342;5.528;2023-07-24T09:20:17;14.88;;;5.07;;
43160;SDS011;40968;52.342;5.528;2023-07-24T09:22:50;12.45;;;4.57;;
43160;SDS011;40968;52.342;5.528;2023-07-24T09:25:17;11.45;;;4.43;;
43160;SDS011;40968;52.342;5.528;2023-07-24T09:27:45;11.10;;;4.18;;
43160;SDS011;40968;52.342;5.528;2023-07-24T09:30:12;43.30;;;9.35;;
43160;SDS011;40968;52.342;5.528;2023-07-24T09:32:40;11.15;;;4.30;;
43160;SDS011;40968;52.342;5.528;2023-07-24T09:35:15;12.60;;;4.28;;
43160;SDS011;40968;52.342;5.528;2023-07-24T09:37:43;23.27;;;5.15;;
43160;SDS011;40968;52.342;5.528;2023-07-24T09:40:10;15.48;;;4.72;;
43160;SDS011;40968;52.342;5.528;2023-07-24T09:42:38;10.88;;;4.70;;
43160;SDS011;40968;52.342;5.528;2023-07-24T09:45:07;16.92;;;4.57;;
43160;SDS011;40968;52.342;5.528;2023-07-24T09:47:35;13.15;;;4.63;;
43160;SDS011;40968;52.342;5.528;2023-07-24T09:50:02;9.18;;;4.30;;
43160;SDS011;40968;52.342;5.528;2023-07-24T09:52:30;14.93;;;5.10;;
43160;SDS011;40968;52.342;5.528;2023-07-24T09:54:59;17.25;;;4.75;;
43160;SDS011;40968;52.342;5.528;2023-07-24T09:57:31;14.95;;;5.10;;
43160;SDS011;40968;52.342;5.528;2023-07-24T09:59:59;16.02;;;5.22;;
43160;SDS011;40968;52.342;5.528;2023-07-24T10:02:28;12.85;;;5.30;;
43160;SDS011;40968;52.342;5.528;2023-07-24T10:04:56;16.88;;;5.80;;
43160;SDS011;40968;52.342;5.528;2023-07-24T10:07:22;19.70;;;5.35;;
43160;SDS011;40968;52.342;5.528;2023-07-24T10:09:49;10.60;;;4.38;;
43160;SDS011;40968;52.342;5.528;2023-07-24T10:12:16;13.07;;;5.75;;
43160;SDS011;40968;52.342;5.528;2023-07-24T10:14:43;15.45;;;5.85;;
43160;SDS011;40968;52.342;5.528;2023-07-24T10:17:11;14.45;;;5.20;;
43160;SDS011;40968;52.342;5.528;2023-07-24T10:19:40;15.02;;;5.97;;
43160;SDS011;40968;52.342;5.528;2023-07-24T10:22:09;15.13;;;5.68;;
43160;SDS011;40968;52.342;5.528;2023-07-24T10:24:36;15.48;;;5.65;;
43160;SDS011;40968;52.342;5.528;2023-07-24T10:27:03;10.52;;;4.45;;
43160;SDS011;40968;52.342;5.528;2023-07-24T10:29:34;19.75;;;5.55;;
43160;SDS011;40968;52.342;5.528;2023-07-24T10:32:01;14.15;;;4.72;;
43160;SDS011;40968;52.342;5.528;2023-07-24T10:34:35;22.25;;;5.30;;
43160;SDS011;40968;52.342;5.528;2023-07-24T10:37:06;16.65;;;6.18;;
43160;SDS011;40968;52.342;5.528;2023-07-24T10:39:37;13.70;;;5.80;;
43160;SDS011;40968;52.342;5.528;2023-07-24T10:42:06;14.43;;;5.57;;
43160;SDS011;40968;52.342;5.528;2023-07-24T10:44:34;13.40;;;5.45;;
43160;SDS011;40968;52.342;5.528;2023-07-24T10:47:00;17.17;;;6.60;;
43160;SDS011;40968;52.342;5.528;2023-07-24T10:49:28;14.02;;;5.68;;
43160;SDS011;40968;52.342;5.528;2023-07-24T10:51:55;12.20;;;5.47;;
43160;SDS011;40968;52.342;5.528;2023-07-24T10:54:24;14.68;;;6.45;;
43160;SDS011;40968;52.342;5.528;2023-07-24T10:56:57;16.67;;;6.38;;
43160;SDS011;40968;52.342;5.528;2023-07-24T10:59:34;14.88;;;5.82;;
43160;SDS011;40968;52.342;5.528;2023-07-24T11:02:02;16.05;;;5.90;;
43160;SDS011;40968;52.342;5.528;2023-07-24T11:04:30;12.73;;;5.60;;
43160;SDS011;40968;52.342;5.528;2023-07-24T11:06:57;11.82;;;5.68;;
43160;SDS011;40968;52.342;5.528;2023-07-24T11:09:34;15.52;;;5.32;;
43160;SDS011;40968;52.342;5.528;2023-07-24T11:12:08;11.52;;;5.55;;
43160;SDS011;40968;52.342;5.528;2023-07-24T11:14:45;17.23;;;5.20;;
43160;SDS011;40968;52.342;5.528;2023-07-24T11:17:12;17.65;;;5.70;;
43160;SDS011;40968;52.342;5.528;2023-07-24T11:19:39;14.32;;;5.07;;
43160;SDS011;40968;52.342;5.528;2023-07-24T11:22:06;13.88;;;5.28;;
43160;SDS011;40968;52.342;5.528;2023-07-24T11:24:33;11.23;;;5.05;;
43160;SDS011;40968;52.342;5.528;2023-07-24T11:27:08;9.35;;;5.10;;
43160;SDS011;40968;52.342;5.528;2023-07-24T11:29:36;12.98;;;5.13;;
43160;SDS011;40968;52.342;5.528;2023-07-24T11:32:04;11.10;;;5.30;;
43160;SDS011;40968;52.342;5.528;2023-07-24T11:34:31;14.30;;;5.40;;
43160;SDS011;40968;52.342;5.528;2023-07-24T11:36:58;12.95;;;5.03;;
43160;SDS011;40968;52.342;5.528;2023-07-24T11:39:25;16.83;;;5.70;;
43160;SDS011;40968;52.342;5.528;2023-07-24T11:41:53;19.23;;;5.32;;
43160;SDS011;40968;52.342;5.528;2023-07-24T11:44:24;13.13;;;5.75;;
43160;SDS011;40968;52.342;5.528;2023-07-24T11:46:51;12.43;;;5.32;;
43160;SDS011;40968;52.342;5.528;2023-07-24T11:49:21;19.02;;;5.00;;
43160;SDS011;40968;52.342;5.528;2023-07-24T11:51:48;12.55;;;6.60;;
43160;SDS011;40968;52.342;5.528;2023-07-24T11:54:16;12.57;;;5.85;;
43160;SDS011;40968;52.342;5.528;2023-07-24T11:56:43;19.92;;;6.18;;
43160;SDS011;40968;52.342;5.528;2023-07-24T11:59:11;14.52;;;5.05;;
43160;SDS011;40968;52.342;5.528;2023-07-24T12:01:39;19.08;;;5.90;;
43160;SDS011;40968;52.342;5.528;2023-07-24T12:04:05;12.07;;;4.70;;
43160;SDS011;40968;52.342;5.528;2023-07-24T12:06:32;13.32;;;4.60;;
43160;SDS011;40968;52.342;5.528;2023-07-24T12:09:01;15.90;;;4.78;;
43160;SDS011;40968;52.342;5.528;2023-07-24T12:11:29;16.33;;;4.70;;
43160;SDS011;40968;52.342;5.528;2023-07-24T12:13:56;10.55;;;4.43;;
43160;SDS011;40968;52.342;5.528;2023-07-24T12:16:25;16.67;;;5.00;;
43160;SDS011;40968;52.342;5.528;2023-07-24T12:18:51;10.25;;;3.83;;
43160;SDS011;40968;52.342;5.528;2023-07-24T12:21:18;10.90;;;4.10;;
43160;SDS011;40968;52.342;5.528;2023-07-24T12:23:45;12.52;;;3.78;;
43160;SDS011;40968;52.342;5.528;2023-07-24T12:26:11;15.80;;;3.97;;
43160;SDS011;40968;52.342;5.528;2023-07-24T12:28:38;9.63;;;3.38;;
43160;SDS011;40968;52.342;5.528;2023-07-24T12:31:05;13.68;;;3.75;;
43160;SDS011;40968;52.342;5.528;2023-07-24T12:33:33;9.95;;;3.78;;
43160;SDS011;40968;52.342;5.528;2023-07-24T12:35:59;7.45;;;3.88;;
43160;SDS011;40968;52.342;5.528;2023-07-24T12:38:26;8.50;;;3.67;;
43160;SDS011;40968;52.342;5.528;2023-07-24T12:40:53;13.85;;;3.67;;
43160;SDS011;40968;52.342;5.528;2023-07-24T12:43:20;7.00;;;3.30;;
43160;SDS011;40968;52.342;5.528;2023-07-24T12:45:46;7.03;;;3.38;;
43160;SDS011;40968;52.342;5.528;2023-07-24T12:48:13;10.95;;;3.97;;
43160;SDS011;40968;52.342;5.528;2023-07-24T12:50:44;7.05;;;3.50;;
43160;SDS011;40968;52.342;5.528;2023-07-24T12:53:10;9.50;;;3.78;;
43160;SDS011;40968;52.342;5.528;2023-07-24T12:55:37;7.80;;;2.83;;
43160;SDS011;40968;52.342;5.528;2023-07-24T12:58:03;7.78;;;2.75;;
43160;SDS011;40968;52.342;5.528;2023-07-24T13:00:30;6.53;;;2.75;;
43160;SDS011;40968;52.342;5.528;2023-07-24T13:02:56;5.47;;;2.65;;
43160;SDS011;40968;52.342;5.528;2023-07-24T13:05:23;6.90;;;2.80;;
43160;SDS011;40968;52.342;5.528;2023-07-24T13:07:51;10.93;;;2.80;;
43160;SDS011;40968;52.342;5.528;2023-07-24T13:10:18;8.80;;;3.00;;
43160;SDS011;40968;52.342;5.528;2023-07-24T13:12:44;5.40;;;2.90;;
43160;SDS011;40968;52.342;5.528;2023-07-24T13:15:11;10.18;;;3.45;;
43160;SDS011;40968;52.342;5.528;2023-07-24T13:17:38;10.23;;;3.55;;
43160;SDS011;40968;52.342;5.528;2023-07-24T13:20:06;8.38;;;3.90;;
43160;SDS011;40968;52.342;5.528;2023-07-24T13:22:33;13.77;;;3.80;;
43160;SDS011;40968;52.342;5.528;2023-07-24T13:25:01;10.32;;;3.30;;
43160;SDS011;40968;52.342;5.528;2023-07-24T13:27:28;14.25;;;3.90;;
43160;SDS011;40968;52.342;5.528;2023-07-24T13:29:55;8.98;;;3.42;;
43160;SDS011;40968;52.342;5.528;2023-07-24T13:32:21;8.55;;;3.10;;
43160;SDS011;40968;52.342;5.528;2023-07-24T13:34:48;9.00;;;3.40;;
43160;SDS011;40968;52.342;5.528;2023-07-24T13:37:15;7.55;;;3.03;;
43160;SDS011;40968;52.342;5.528;2023-07-24T13:39:41;7.25;;;2.90;;
43160;SDS011;40968;52.342;5.528;2023-07-24T13:42:09;6.45;;;2.55;;
43160;SDS011;40968;52.342;5.528;2023-07-24T13:44:36;7.32;;;3.03;;
43160;SDS011;40968;52.342;5.528;2023-07-24T13:47:03;4.93;;;2.40;;
43160;SDS011;40968;52.342;5.528;2023-07-24T13:49:30;3.92;;;1.73;;
43160;SDS011;40968;52.342;5.528;2023-07-24T13:51:56;5.80;;;1.65;;
43160;SDS011;40968;52.342;5.528;2023-07-24T13:54:23;4.00;;;1.30;;
43160;SDS011;40968;52.342;5.528;2023-07-24T13:56:49;3.08;;;1.67;;
43160;SDS011;40968;52.342;5.528;2023-07-24T13:59:17;3.83;;;1.83;;
43160;SDS011;40968;52.342;5.528;2023-07-24T14:01:44;5.28;;;1.77;;
43160;SDS011;40968;52.342;5.528;2023-07-24T14:04:11;8.70;;;1.60;;
43160;SDS011;40968;52.342;5.528;2023-07-24T14:06:39;3.80;;;1.67;;
43160;SDS011;40968;52.342;5.528;2023-07-24T14:09:06;6.60;;;1.80;;
43160;SDS011;40968;52.342;5.528;2023-07-24T14:11:33;4.70;;;2.33;;
43160;SDS011;40968;52.342;5.528;2023-07-24T14:13:59;7.55;;;2.15;;
43160;SDS011;40968;52.342;5.528;2023-07-24T14:16:27;7.68;;;2.15;;
43160;SDS011;40968;52.342;5.528;2023-07-24T14:18:54;5.22;;;1.83;;
43160;SDS011;40968;52.342;5.528;2023-07-24T14:21:20;6.65;;;2.25;;
43160;SDS011;40968;52.342;5.528;2023-07-24T14:23:47;5.45;;;2.00;;
43160;SDS011;40968;52.342;5.528;2023-07-24T14:26:14;5.05;;;1.90;;
43160;SDS011;40968;52.342;5.528;2023-07-24T14:28:40;10.77;;;2.28;;
43160;SDS011;40968;52.342;5.528;2023-07-24T14:31:07;6.03;;;2.13;;
43160;SDS011;40968;52.342;5.528;2023-07-24T14:33:35;8.35;;;2.17;;
43160;SDS011;40968;52.342;5.528;2023-07-24T14:36:02;6.57;;;2.10;;
43160;SDS011;40968;52.342;5.528;2023-07-24T14:38:28;13.20;;;2.35;;